Time;durP1;ratioP1;P1;durP2;ratioP2;P2;SDS_P1;SDS_P2;PMS_P1;PMS_P2;Temp;Humidity;BMP_temperature;BMP_pressure;BME280_temperature;BME280_humidity;BME280_pressure;Samples;Min_cycle;Max_cycle;Signal;HPM_P1;HPM_P2
2021/09/06 06:52:13;;;;;;;24.27;19.00;;;22.70;99.90;;;;;;5090450;27;20154;-65
2021/09/06 06:54:39;;;;;;;20.90;17.85;;;22.50;99.90;;;;;;5094286;28;20024;-65
2021/09/06 06:57:06;;;;;;;22.65;16.90;;;22.40;99.90;;;;;;5102038;28;20027;-66
2021/09/06 06:59:32;;;;;;;20.83;16.20;;;22.30;99.90;;;;;;5107843;28;20040;-66
2021/09/06 07:01:58;;;;;;;20.48;15.88;;;22.30;99.90;;;;;;5107852;28;20031;-66
2021/09/06 07:04:23;;;;;;;20.70;15.38;;;22.30;99.90;;;;;;5109286;28;20364;-66
2021/09/06 07:06:49;;;;;;;20.50;15.48;;;22.30;99.90;;;;;;5108818;28;20032;-66
2021/09/06 07:09:15;;;;;;;18.98;14.13;;;22.30;99.90;;;;;;5109349;28;20451;-69
2021/09/06 07:11:40;;;;;;;18.17;13.55;;;22.20;99.90;;;;;;5108872;28;20032;-66
2021/09/06 07:14:06;;;;;;;15.50;12.10;;;22.30;99.90;;;;;;5109301;28;20025;-66
2021/09/06 07:16:32;;;;;;;16.92;13.82;;;22.30;99.90;;;;;;5108850;28;20058;-66
2021/09/06 07:18:57;;;;;;;15.63;12.48;;;22.30;99.90;;;;;;5108742;28;20406;-66
2021/09/06 07:21:23;;;;;;;13.50;11.43;;;22.30;99.90;;;;;;5108817;28;20022;-66
2021/09/06 07:23:48;;;;;;;13.52;11.20;;;22.30;99.90;;;;;;5106572;28;20642;-66
2021/09/06 07:26:14;;;;;;;12.90;10.90;;;22.30;99.90;;;;;;5107676;28;20483;-66
2021/09/06 07:28:40;;;;;;;13.27;10.93;;;22.30;99.90;;;;;;5108563;28;20081;-67
2021/09/06 07:31:06;;;;;;;12.98;10.93;;;22.30;99.90;;;;;;5108855;28;20060;-70
2021/09/06 07:33:31;;;;;;;15.25;10.88;;;22.30;99.90;;;;;;5108672;28;20112;-66
2021/09/06 07:35:57;;;;;;;12.98;10.82;;;22.30;99.90;;;;;;5108349;28;20579;-64
2021/09/06 07:38:24;;;;;;;11.35;9.57;;;22.40;99.90;;;;;;5108656;28;20106;-64
2021/09/06 07:40:49;;;;;;;11.98;10.13;;;22.30;99.90;;;;;;5107052;28;20115;-64
2021/09/06 07:43:15;;;;;;;12.20;9.20;;;22.30;99.90;;;;;;5108306;28;20098;-64
2021/09/06 07:45:41;;;;;;;14.23;9.80;;;22.30;99.90;;;;;;5108162;28;20027;-64
2021/09/06 07:48:07;;;;;;;11.85;9.50;;;22.30;99.90;;;;;;5108726;28;20012;-65
2021/09/06 07:50:32;;;;;;;12.88;9.43;;;22.40;99.90;;;;;;5107949;28;20032;-65
2021/09/06 07:52:58;;;;;;;12.10;10.23;;;22.30;99.90;;;;;;5107163;28;20395;-66
2021/09/06 07:55:24;;;;;;;13.77;10.15;;;22.30;99.90;;;;;;5106588;28;20382;-66
2021/09/06 07:57:49;;;;;;;13.15;9.38;;;22.40;99.90;;;;;;5107306;28;20066;-66
2021/09/06 08:00:15;;;;;;;12.30;10.52;;;22.40;99.90;;;;;;5108176;28;20028;-66
2021/09/06 08:02:50;;;;;;;11.35;10.10;;;22.40;99.90;;;;;;5099153;28;20051;-66
2021/09/06 08:05:25;;;;;;;11.60;9.52;;;22.40;99.90;;;;;;5093581;28;20020;-66
2021/09/06 08:07:51;;;;;;;16.42;9.88;;;22.40;99.90;;;;;;5074038;28;20025;-66
2021/09/06 08:10:17;;;;;;;10.32;8.95;;;22.40;99.90;;;;;;5074109;28;20036;-66
2021/09/06 08:12:43;;;;;;;11.95;9.65;;;22.40;99.90;;;;;;5073718;28;20024;-66
2021/09/06 08:15:10;;;;;;;10.45;9.20;;;22.40;99.90;;;;;;5074371;28;20024;-66
2021/09/06 08:17:36;;;;;;;13.85;9.82;;;22.40;99.90;;;;;;5074305;28;20388;-66
2021/09/06 08:20:04;;;;;;;14.27;9.25;;;22.40;99.90;;;;;;5073672;28;20042;-66
2021/09/06 08:22:30;;;;;;;12.32;10.10;;;22.40;99.90;;;;;;5074158;28;20040;-65
2021/09/06 08:24:56;;;;;;;14.55;10.27;;;22.40;99.90;;;;;;5073403;28;20460;-66
2021/09/06 08:27:22;;;;;;;13.48;8.98;;;22.40;99.90;;;;;;5073770;28;20024;-65
2021/09/06 08:29:48;;;;;;;12.20;9.32;;;22.40;99.90;;;;;;5073423;28;20020;-66
2021/09/06 08:32:14;;;;;;;13.13;9.05;;;22.40;99.90;;;;;;5073815;28;20029;-66
2021/09/06 08:34:40;;;;;;;12.23;9.73;;;22.40;99.90;;;;;;5073823;28;20013;-66
2021/09/06 08:37:05;;;;;;;13.85;9.63;;;22.40;99.90;;;;;;5073649;28;20028;-66
2021/09/06 08:39:31;;;;;;;14.70;9.85;;;22.40;99.90;;;;;;5073538;28;20034;-66
2021/09/06 08:42:00;;;;;;;12.88;9.50;;;22.50;99.90;;;;;;5073385;28;20024;-66
2021/09/06 08:44:26;;;;;;;11.18;9.25;;;22.50;99.90;;;;;;5073380;28;20048;-66
2021/09/06 08:46:53;;;;;;;11.73;9.40;;;22.50;99.90;;;;;;5073224;28;20048;-66
2021/09/06 08:49:20;;;;;;;11.43;9.40;;;22.50;99.90;;;;;;5073374;28;20026;-66
2021/09/06 08:51:46;;;;;;;11.93;9.57;;;22.50;99.90;;;;;;5072878;28;20067;-66
2021/09/06 08:54:11;;;;;;;14.48;9.77;;;22.50;99.90;;;;;;5073406;28;20287;-66
2021/09/06 08:56:38;;;;;;;15.55;10.88;;;22.50;99.90;;;;;;5073201;28;20035;-66
2021/09/06 08:59:05;;;;;;;13.93;10.27;;;22.50;99.90;;;;;;5072630;28;20495;-66
2021/09/06 09:01:38;;;;;;;15.57;11.35;;;22.50;99.90;;;;;;5073324;28;20037;-67
2021/09/06 09:04:18;;;;;;;16.65;10.38;;;22.50;99.90;;;;;;5073147;28;20027;-67
2021/09/06 09:06:53;;;;;;;15.30;10.60;;;22.50;99.90;;;;;;5072787;28;20024;-66
2021/09/06 09:09:26;;;;;;;12.90;10.13;;;22.50;99.90;;;;;;5073122;28;20056;-67
2021/09/06 09:12:04;;;;;;;15.35;10.90;;;22.50;99.90;;;;;;5072737;28;20028;-67
2021/09/06 09:14:31;;;;;;;17.52;11.60;;;22.50;99.90;;;;;;5071944;28;20077;-66
2021/09/06 09:17:01;;;;;;;17.42;11.70;;;22.50;99.90;;;;;;5072223;28;20059;-66
2021/09/06 09:19:27;;;;;;;16.92;11.80;;;22.50;99.90;;;;;;5072958;28;20369;-66
2021/09/06 09:21:54;;;;;;;18.38;12.13;;;22.50;99.90;;;;;;5072666;28;20039;-66
2021/09/06 09:24:22;;;;;;;19.77;12.98;;;22.50;99.90;;;;;;5072575;28;20059;-66
2021/09/06 09:27:17;;;;;;;16.65;12.00;;;22.60;99.90;;;;;;5072389;28;20385;-66
2021/09/06 09:29:44;;;;;;;17.92;12.65;;;22.60;99.90;;;;;;5070220;28;20064;-66
2021/09/06 09:32:12;;;;;;;16.90;12.45;;;22.60;99.90;;;;;;5072716;28;20040;-66
2021/09/06 09:34:42;;;;;;;17.92;12.65;;;22.60;99.90;;;;;;5072899;28;20021;-66
2021/09/06 09:37:09;;;;;;;15.45;12.00;;;22.60;99.90;;;;;;5072967;28;20131;-66
2021/09/06 09:39:36;;;;;;;17.90;12.77;;;22.60;99.90;;;;;;5072952;28;20029;-66
2021/09/06 09:42:12;;;;;;;15.73;12.27;;;22.60;99.90;;;;;;5072225;28;20028;-66
2021/09/06 09:45:04;;;;;;;18.08;12.23;;;22.60;99.90;;;;;;5072757;28;20396;-66
2021/09/06 09:47:30;;;;;;;19.98;12.30;;;22.60;99.90;;;;;;5068707;28;20036;-66
2021/09/06 09:49:57;;;;;;;15.55;12.65;;;22.60;99.90;;;;;;5071775;28;20017;-66
2021/09/06 09:52:24;;;;;;;17.50;13.30;;;22.60;99.90;;;;;;5072176;28;20028;-66
2021/09/06 09:54:54;;;;;;;18.05;12.88;;;22.60;99.90;;;;;;5072011;28;20058;-67
2021/09/06 09:57:26;;;;;;;17.55;13.05;;;22.70;99.90;;;;;;5072200;28;20017;-67
2021/09/06 09:59:52;;;;;;;15.98;12.20;;;22.60;99.90;;;;;;5071841;28;20255;-67
2021/09/06 10:02:24;;;;;;;16.67;11.00;;;22.70;99.90;;;;;;5071980;28;20108;-67
2021/09/06 10:05:02;;;;;;;16.55;12.15;;;22.60;99.90;;;;;;5071903;28;20048;-67
2021/09/06 10:07:33;;;;;;;13.52;11.40;;;22.70;99.90;;;;;;5072036;28;20031;-66
2021/09/06 10:10:17;;;;;;;16.48;11.93;;;22.70;99.90;;;;;;5071666;28;20017;-67
2021/09/06 10:12:44;;;;;;;18.60;11.85;;;22.70;99.90;;;;;;5071713;28;20404;-66
2021/09/06 10:15:11;;;;;;;14.27;11.70;;;22.70;99.90;;;;;;5071919;28;20017;-69
2021/09/06 10:17:39;;;;;;;14.20;11.07;;;22.70;99.90;;;;;;5072283;28;20026;-67
2021/09/06 10:20:21;;;;;;;16.85;12.63;;;22.70;99.90;;;;;;5071807;28;20046;-67
2021/09/06 10:22:48;;;;;;;14.27;10.57;;;22.80;99.90;;;;;;5060752;28;20435;-68
2021/09/06 10:25:19;;;;;;;15.35;12.07;;;22.80;99.90;;;;;;5060293;28;20350;-67
2021/09/06 10:27:53;;;;;;;14.95;11.52;;;22.80;99.90;;;;;;5070434;28;20032;-67
2021/09/06 10:30:19;;;;;;;15.70;11.68;;;22.80;99.90;;;;;;5070929;28;20111;-67
2021/09/06 10:32:48;;;;;;;17.35;11.73;;;22.80;99.90;;;;;;5070671;28;20380;-67
2021/09/06 10:35:21;;;;;;;18.58;11.10;;;22.80;99.90;;;;;;5070925;28;20025;-67
2021/09/06 10:38:02;;;;;;;14.93;11.68;;;22.80;99.90;;;;;;5070958;28;20415;-67
2021/09/06 10:40:31;;;;;;;15.65;11.70;;;22.80;99.90;;;;;;5070986;28;20024;-66
2021/09/06 10:42:57;;;;;;;17.52;12.70;;;22.80;99.90;;;;;;5070669;28;20196;-66
2021/09/06 10:45:24;;;;;;;16.90;12.13;;;22.80;99.90;;;;;;5070767;28;20059;-65
2021/09/06 10:47:59;;;;;;;16.55;12.45;;;22.80;99.90;;;;;;5070440;28;20017;-65
2021/09/06 10:50:24;;;;;;;17.27;12.82;;;22.90;99.90;;;;;;5070760;28;20036;-65
2021/09/06 10:52:50;;;;;;;14.13;11.75;;;22.90;99.90;;;;;;5069498;28;20079;-65
2021/09/06 10:55:18;;;;;;;14.98;11.38;;;22.90;99.90;;;;;;5071021;28;20021;-65
2021/09/06 10:57:46;;;;;;;15.50;11.48;;;22.90;99.90;;;;;;5070533;28;20024;-66
2021/09/06 11:00:18;;;;;;;14.43;11.75;;;22.90;99.90;;;;;;5062556;28;20132;-65
2021/09/06 11:02:43;;;;;;;15.05;11.25;;;22.90;99.90;;;;;;5070363;28;20496;-65
2021/09/06 11:05:20;;;;;;;14.23;10.57;;;22.90;99.90;;;;;;5070824;28;20035;-65
2021/09/06 11:07:46;;;;;;;13.80;10.57;;;23.00;99.90;;;;;;5069276;28;20495;-65
2021/09/06 11:10:23;;;;;;;15.90;11.32;;;23.00;99.90;;;;;;5070374;28;20036;-66
2021/09/06 11:12:54;;;;;;;16.33;11.15;;;23.00;99.90;;;;;;5070402;28;20039;-65
2021/09/06 11:15:23;;;;;;;16.65;11.15;;;23.00;99.90;;;;;;5070364;28;20093;-64
2021/09/06 11:17:59;;;;;;;15.48;11.63;;;23.10;99.90;;;;;;5077636;28;20024;-65
2021/09/06 11:20:26;;;;;;;15.40;10.98;;;23.10;99.90;;;;;;5090756;28;20024;-65
2021/09/06 11:22:52;;;;;;;13.95;11.00;;;23.10;99.90;;;;;;5090318;28;20545;-65
2021/09/06 11:25:25;;;;;;;17.60;11.35;;;23.10;99.90;;;;;;5090814;28;20036;-65
2021/09/06 11:27:52;;;;;;;13.43;10.65;;;23.10;99.90;;;;;;5090742;28;20012;-65
2021/09/06 11:30:24;;;;;;;18.55;9.93;;;23.10;99.90;;;;;;5090331;28;20079;-66
2021/09/06 11:32:51;;;;;;;14.23;10.60;;;23.20;99.90;;;;;;5090515;28;20166;-66
2021/09/06 11:35:21;;;;;;;11.98;10.23;;;23.20;99.90;;;;;;5090401;28;20028;-64
2021/09/06 11:37:47;;;;;;;12.32;9.65;;;23.20;99.90;;;;;;5071653;28;20034;-65
2021/09/06 11:40:13;;;;;;;11.45;9.35;;;23.20;99.90;;;;;;5073593;28;20103;-65
2021/09/06 11:42:39;;;;;;;12.65;10.35;;;23.20;99.90;;;;;;5072644;28;20089;-67
2021/09/06 11:45:07;;;;;;;14.77;10.57;;;23.20;99.90;;;;;;5072896;28;20028;-65
2021/09/06 11:47:34;;;;;;;12.38;10.27;;;23.20;99.90;;;;;;5105568;28;20024;-65
2021/09/06 11:50:00;;;;;;;15.60;10.02;;;23.30;99.90;;;;;;5072189;28;20475;-66
2021/09/06 11:52:34;;;;;;;10.88;9.70;;;23.30;99.90;;;;;;5068888;28;20035;-65
2021/09/06 11:55:01;;;;;;;12.05;9.93;;;23.30;99.90;;;;;;5072434;28;20497;-67
2021/09/06 11:57:35;;;;;;;14.82;10.38;;;23.30;99.90;;;;;;5072514;28;20031;-66
2021/09/06 12:00:01;;;;;;;11.82;9.50;;;23.40;99.90;;;;;;5071974;28;20044;-66
2021/09/06 12:02:27;;;;;;;12.00;9.75;;;23.40;99.90;;;;;;5072415;28;20024;-66
2021/09/06 12:05:04;;;;;;;14.05;10.27;;;23.40;99.90;;;;;;5071841;28;20036;-66
2021/09/06 12:07:30;;;;;;;12.90;10.27;;;23.40;99.90;;;;;;5073102;28;20082;-67
2021/09/06 12:09:55;;;;;;;11.27;9.40;;;23.40;99.90;;;;;;5073822;28;20407;-66
2021/09/06 12:12:25;;;;;;;11.82;9.88;;;23.40;99.90;;;;;;5074264;28;20032;-66
2021/09/06 12:14:52;;;;;;;11.02;9.27;;;23.40;99.90;;;;;;5073629;28;20107;-67
2021/09/06 12:17:19;;;;;;;10.38;9.07;;;23.50;99.90;;;;;;5074059;28;20024;-67
2021/09/06 12:19:48;;;;;;;10.15;9.05;;;23.50;99.90;;;;;;5073836;28;20373;-67
2021/09/06 12:22:20;;;;;;;13.10;9.85;;;23.50;99.90;;;;;;5074179;28;20028;-67
2021/09/06 12:24:47;;;;;;;11.90;9.43;;;23.50;99.90;;;;;;5073817;28;20081;-67
2021/09/06 12:27:16;;;;;;;13.45;10.05;;;23.60;99.90;;;;;;5074090;28;20117;-67
2021/09/06 12:29:42;;;;;;;11.05;9.05;;;23.60;99.90;;;;;;5073514;28;20020;-67
2021/09/06 12:32:13;;;;;;;11.25;9.70;;;23.60;99.90;;;;;;5074022;28;20033;-66
2021/09/06 12:34:38;;;;;;;12.50;9.50;;;23.60;99.90;;;;;;5073667;28;20108;-66
2021/09/06 12:37:05;;;;;;;11.43;8.93;;;23.60;99.90;;;;;;5072619;28;20111;-66
2021/09/06 12:39:37;;;;;;;11.38;9.05;;;23.70;99.90;;;;;;5073632;28;20021;-66
2021/09/06 12:42:04;;;;;;;10.98;8.80;;;23.70;99.90;;;;;;5073321;28;20028;-67
2021/09/06 12:44:30;;;;;;;11.82;9.40;;;23.70;99.90;;;;;;5073561;28;20028;-68
2021/09/06 12:46:55;;;;;;;10.32;9.18;;;23.70;99.90;;;;;;5073195;28;20061;-67
2021/09/06 12:49:25;;;;;;;10.38;8.85;;;23.70;99.90;;;;;;5073329;28;20170;-67
2021/09/06 12:51:51;;;;;;;15.35;9.60;;;23.70;99.90;;;;;;5073032;28;20040;-66
2021/09/06 12:54:16;;;;;;;11.20;8.88;;;23.80;99.90;;;;;;5073385;28;20082;-66
2021/09/06 12:56:42;;;;;;;10.48;9.00;;;23.80;99.90;;;;;;5073055;28;20476;-66
2021/09/06 12:59:08;;;;;;;10.02;8.45;;;23.80;99.90;;;;;;5073613;28;20044;-66
2021/09/06 13:01:34;;;;;;;9.70;8.23;;;23.80;99.90;;;;;;5073334;28;20353;-66
2021/09/06 13:03:59;;;;;;;12.65;8.98;;;23.80;99.90;;;;;;5072980;28;20067;-67
2021/09/06 13:06:25;;;;;;;11.88;8.88;;;23.90;99.90;;;;;;5073107;28;20021;-66
2021/09/06 13:08:51;;;;;;;10.88;8.43;;;23.90;99.90;;;;;;5072840;28;20016;-66
2021/09/06 13:11:16;;;;;;;9.63;8.63;;;23.90;99.90;;;;;;5072863;28;20071;-67
2021/09/06 13:13:42;;;;;;;11.15;8.55;;;23.90;99.90;;;;;;5072759;28;20134;-66
2021/09/06 13:16:09;;;;;;;10.40;8.55;;;23.90;99.90;;;;;;5073207;28;20032;-66
2021/09/06 13:18:34;;;;;;;9.77;8.57;;;24.00;99.90;;;;;;5072863;28;20020;-66
2021/09/06 13:21:03;;;;;;;10.50;8.80;;;24.00;99.90;;;;;;5072755;28;20384;-67
2021/09/06 13:23:28;;;;;;;9.40;8.35;;;24.00;99.90;;;;;;5072876;28;20035;-66
2021/09/06 13:25:55;;;;;;;10.63;8.52;;;24.00;99.90;;;;;;5072470;28;20020;-67
2021/09/06 13:28:21;;;;;;;10.57;8.30;;;24.00;99.90;;;;;;5072520;28;20384;-67
2021/09/06 13:30:47;;;;;;;11.80;8.43;;;24.10;99.90;;;;;;5072138;28;20082;-67
2021/09/06 13:33:12;;;;;;;9.00;7.95;;;24.10;99.90;;;;;;5072506;28;20081;-67
2021/09/06 13:35:38;;;;;;;10.05;8.93;;;24.10;99.90;;;;;;5072828;28;20052;-67
2021/09/06 13:38:04;;;;;;;10.45;8.27;;;24.10;99.90;;;;;;5072241;28;20455;-67
2021/09/06 13:40:29;;;;;;;9.45;8.00;;;24.10;99.90;;;;;;5072191;28;20029;-67
2021/09/06 13:42:55;;;;;;;9.38;8.25;;;24.20;99.90;;;;;;5072010;28;20024;-67
2021/09/06 13:45:21;;;;;;;9.77;7.57;;;24.20;99.90;;;;;;5072340;28;20365;-67
2021/09/06 13:47:47;;;;;;;8.63;7.57;;;24.20;99.90;;;;;;5104495;28;20031;-66
2021/09/06 13:50:12;;;;;;;9.63;7.68;;;24.20;99.90;;;;;;5071881;28;20024;-66
2021/09/06 13:52:40;;;;;;;9.07;7.30;;;24.20;99.90;;;;;;5072602;28;20157;-67
2021/09/06 13:55:06;;;;;;;9.38;8.05;;;24.20;99.90;;;;;;5071062;28;20070;-67
2021/09/06 13:57:32;;;;;;;9.10;7.65;;;24.30;99.90;;;;;;5072155;28;20111;-67
2021/09/06 13:59:57;;;;;;;8.65;7.57;;;24.20;99.90;;;;;;5071369;28;20023;-67
2021/09/06 14:02:23;;;;;;;8.65;7.22;;;24.30;99.90;;;;;;5071944;28;20028;-66
2021/09/06 14:04:49;;;;;;;8.32;7.05;;;24.30;99.90;;;;;;5071813;28;20016;-67
2021/09/06 14:07:15;;;;;;;8.43;7.47;;;24.30;99.90;;;;;;5071980;28;20430;-66
2021/09/06 14:09:40;;;;;;;8.90;7.15;;;24.40;99.90;;;;;;5071577;28;20020;-66
2021/09/06 14:12:11;;;;;;;7.50;6.70;;;24.40;99.90;;;;;;5072145;28;20036;-67
2021/09/06 14:14:38;;;;;;;8.73;7.45;;;24.40;99.90;;;;;;5072096;28;20025;-66
2021/09/06 14:17:04;;;;;;;9.23;7.38;;;24.40;99.90;;;;;;5071590;28;20035;-66
2021/09/06 14:19:30;;;;;;;8.65;6.88;;;24.40;99.90;;;;;;5071769;28;20103;-66
2021/09/06 14:21:55;;;;;;;8.52;7.10;;;24.40;99.90;;;;;;5071557;28;20527;-66
2021/09/06 14:24:21;;;;;;;9.57;7.10;;;24.40;99.90;;;;;;5071746;28;20078;-66
2021/09/06 14:26:46;;;;;;;9.30;7.40;;;24.40;99.90;;;;;;5071450;28;20021;-67
2021/09/06 14:29:12;;;;;;;7.47;6.65;;;24.50;99.90;;;;;;5071715;28;20028;-67
2021/09/06 14:31:38;;;;;;;8.02;7.00;;;24.50;99.90;;;;;;5071891;28;20055;-67
2021/09/06 14:34:03;;;;;;;8.02;6.82;;;24.50;99.90;;;;;;5071379;28;20040;-66
2021/09/06 14:36:33;;;;;;;8.07;7.15;;;24.50;99.90;;;;;;5071600;28;20369;-66
2021/09/06 14:38:59;;;;;;;8.18;7.10;;;24.50;99.90;;;;;;5071232;28;20040;-67
2021/09/06 14:41:25;;;;;;;7.53;6.50;;;24.50;99.90;;;;;;5071694;28;20035;-66
2021/09/06 14:43:51;;;;;;;7.57;6.80;;;24.60;99.90;;;;;;5071442;28;20059;-67
2021/09/06 14:46:17;;;;;;;7.13;6.40;;;24.60;99.90;;;;;;5071538;28;20474;-66
2021/09/06 14:48:42;;;;;;;7.88;6.93;;;24.60;99.90;;;;;;5071106;28;20033;-67
2021/09/06 14:51:08;;;;;;;8.98;7.15;;;24.60;99.90;;;;;;5071530;28;20033;-68
2021/09/06 14:53:33;;;;;;;8.48;6.72;;;24.60;99.90;;;;;;5071307;28;20017;-66
2021/09/06 14:56:00;;;;;;;7.18;6.28;;;24.60;99.90;;;;;;5071362;28;20494;-67
2021/09/06 14:58:25;;;;;;;7.15;6.43;;;24.70;99.90;;;;;;5071350;28;20025;-66
2021/09/06 15:00:51;;;;;;;6.68;6.07;;;24.70;99.90;;;;;;5071300;28;20169;-68
2021/09/06 15:03:16;;;;;;;8.10;6.95;;;24.70;99.90;;;;;;5071285;28;20108;-68
2021/09/06 15:05:43;;;;;;;6.65;5.95;;;24.70;99.90;;;;;;5071081;28;20380;-66
2021/09/06 15:08:09;;;;;;;7.68;6.32;;;24.70;99.90;;;;;;5071599;28;20078;-68
2021/09/06 15:10:34;;;;;;;6.95;6.20;;;24.70;99.90;;;;;;5071204;28;20028;-67
2021/09/06 15:13:00;;;;;;;8.50;6.50;;;24.70;99.90;;;;;;5073364;28;20033;-67
2021/09/06 15:15:27;;;;;;;8.27;5.82;;;24.70;99.90;;;;;;5075285;28;20427;-66
2021/09/06 15:17:52;;;;;;;7.18;6.47;;;24.80;99.90;;;;;;5075022;28;20407;-68
2021/09/06 15:20:18;;;;;;;7.57;6.35;;;24.80;99.90;;;;;;5075121;28;20025;-67
2021/09/06 15:22:44;;;;;;;6.75;6.05;;;24.80;99.90;;;;;;5074959;28;20036;-67
2021/09/06 15:25:10;;;;;;;7.03;6.18;;;24.80;99.90;;;;;;5075180;28;20114;-67
2021/09/06 15:27:36;;;;;;;7.07;5.90;;;24.80;99.90;;;;;;5075396;28;20032;-66
2021/09/06 15:30:07;;;;;;;6.93;5.90;;;24.80;99.90;;;;;;5074675;28;20541;-66
2021/09/06 15:32:33;;;;;;;7.72;6.63;;;24.80;99.90;;;;;;5076836;28;20024;-66
2021/09/06 15:34:59;;;;;;;6.43;5.80;;;24.90;99.90;;;;;;5094986;28;20530;-68
2021/09/06 15:37:28;;;;;;;6.65;5.88;;;24.80;99.90;;;;;;5077421;28;20112;-67
2021/09/06 15:39:54;;;;;;;6.43;5.75;;;24.90;99.90;;;;;;5073320;28;20032;-66
2021/09/06 15:42:20;;;;;;;7.72;6.22;;;24.90;99.90;;;;;;5074153;28;20431;-68
2021/09/06 15:44:47;;;;;;;7.05;6.35;;;24.90;99.90;;;;;;5078231;28;20037;-68
2021/09/06 15:47:15;;;;;;;6.15;5.45;;;24.90;99.90;;;;;;5075657;28;20099;-68
2021/09/06 15:49:41;;;;;;;6.50;5.80;;;24.90;99.90;;;;;;5092448;28;20055;-67
2021/09/06 15:52:07;;;;;;;6.53;5.80;;;24.90;99.90;;;;;;5076462;28;20036;-66
2021/09/06 15:54:34;;;;;;;6.65;5.95;;;24.90;99.90;;;;;;5082121;28;20027;-67
2021/09/06 15:57:00;;;;;;;6.32;5.72;;;24.90;99.90;;;;;;5094396;28;20056;-66
2021/09/06 15:59:25;;;;;;;6.18;5.57;;;24.90;99.90;;;;;;5094833;28;20097;-67
2021/09/06 16:01:51;;;;;;;6.82;6.07;;;25.00;99.90;;;;;;5094448;28;20483;-67
2021/09/06 16:04:16;;;;;;;6.80;5.72;;;25.00;99.90;;;;;;5094601;28;20024;-66
2021/09/06 16:06:43;;;;;;;6.50;5.85;;;25.00;99.90;;;;;;5094397;28;20409;-67
2021/09/06 16:09:09;;;;;;;6.85;5.68;;;25.00;99.90;;;;;;5094999;28;20044;-68
2021/09/06 16:11:35;;;;;;;6.70;5.85;;;25.00;99.90;;;;;;5080992;28;20142;-66
2021/09/06 16:14:00;;;;;;;6.63;5.93;;;25.00;99.90;;;;;;5073044;28;20029;-67
2021/09/06 16:16:26;;;;;;;6.15;5.40;;;25.00;99.90;;;;;;5080190;28;20012;-67
2021/09/06 16:18:52;;;;;;;6.53;5.82;;;25.00;99.90;;;;;;5094068;28;20511;-67
2021/09/06 16:21:18;;;;;;;8.18;5.95;;;25.00;99.90;;;;;;5093865;28;20046;-67
2021/09/06 16:23:44;;;;;;;6.60;5.95;;;25.00;99.90;;;;;;5093444;28;20424;-67
2021/09/06 16:26:09;;;;;;;7.47;5.97;;;25.00;99.90;;;;;;5094367;28;20051;-68
2021/09/06 16:28:35;;;;;;;6.00;5.40;;;25.10;99.90;;;;;;5094569;28;20341;-68
2021/09/06 16:31:01;;;;;;;6.78;5.82;;;25.10;99.90;;;;;;5093809;28;20036;-67
2021/09/06 16:33:27;;;;;;;5.93;5.32;;;25.10;99.90;;;;;;5085659;28;20025;-67
2021/09/06 16:35:53;;;;;;;5.97;5.38;;;25.10;99.90;;;;;;5076829;28;20028;-68
2021/09/06 16:38:18;;;;;;;6.70;5.70;;;25.10;99.90;;;;;;5073471;28;20017;-67
2021/09/06 16:40:44;;;;;;;6.68;5.90;;;25.10;99.90;;;;;;5072882;28;20495;-68
2021/09/06 16:43:10;;;;;;;6.38;5.63;;;25.10;99.90;;;;;;5073470;28;20032;-68
2021/09/06 16:45:35;;;;;;;6.32;5.72;;;25.10;99.90;;;;;;5085575;28;20020;-67
2021/09/06 16:48:01;;;;;;;6.35;5.72;;;25.10;99.90;;;;;;5093365;28;20028;-67
2021/09/06 16:50:29;;;;;;;6.32;5.72;;;25.10;99.90;;;;;;5093492;28;20082;-67
2021/09/06 16:52:54;;;;;;;6.57;5.90;;;25.10;99.90;;;;;;5076064;28;20140;-67
2021/09/06 16:55:20;;;;;;;6.25;5.38;;;25.10;99.90;;;;;;5073220;28;20024;-67
2021/09/06 16:57:47;;;;;;;7.03;6.28;;;25.10;99.90;;;;;;5073131;28;20033;-67
2021/09/06 17:00:13;;;;;;;6.90;6.20;;;25.10;99.90;;;;;;5084242;28;20032;-67
2021/09/06 17:02:40;;;;;;;6.80;6.10;;;25.10;99.90;;;;;;5093656;28;20491;-68
2021/09/06 17:05:10;;;;;;;6.20;5.60;;;25.20;99.90;;;;;;5092752;28;20364;-67
2021/09/06 17:07:41;;;;;;;6.47;5.78;;;25.20;99.90;;;;;;5091869;28;20089;-67
2021/09/06 17:10:12;;;;;;;8.10;5.65;;;25.20;99.90;;;;;;5093200;28;20111;-67
2021/09/06 17:12:38;;;;;;;5.90;5.30;;;25.10;99.90;;;;;;5085817;28;20020;-67
2021/09/06 17:15:05;;;;;;;6.30;5.70;;;25.20;99.90;;;;;;5082590;28;20534;-68
2021/09/06 17:17:31;;;;;;;6.13;5.53;;;25.20;99.90;;;;;;5093204;28;20426;-68
2021/09/06 17:19:57;;;;;;;6.45;5.70;;;25.10;99.90;;;;;;5088582;28;20021;-67
2021/09/06 17:22:22;;;;;;;7.00;5.72;;;25.10;99.90;;;;;;5072310;28;20029;-67
2021/09/06 17:24:50;;;;;;;8.23;6.22;;;25.10;99.90;;;;;;5072363;28;20496;-68
2021/09/06 17:27:16;;;;;;;8.27;7.38;;;25.10;99.90;;;;;;5073860;28;20067;-67
2021/09/06 17:29:42;;;;;;;8.30;6.80;;;25.20;99.90;;;;;;5080755;28;20028;-67
2021/09/06 17:32:07;;;;;;;7.25;6.55;;;25.20;99.90;;;;;;5077387;28;20048;-68
2021/09/06 17:34:33;;;;;;;6.47;5.70;;;25.10;99.90;;;;;;5087564;28;20513;-67
2021/09/06 17:36:59;;;;;;;7.28;6.20;;;25.20;99.90;;;;;;5087589;28;20490;-67
2021/09/06 17:39:25;;;;;;;7.10;6.40;;;25.20;99.90;;;;;;5074493;28;20020;-67
2021/09/06 17:41:50;;;;;;;6.82;5.80;;;25.20;99.90;;;;;;5073316;28;20036;-67
2021/09/06 17:44:16;;;;;;;6.88;6.18;;;25.10;99.90;;;;;;5076787;28;20027;-67
2021/09/06 17:46:42;;;;;;;7.65;6.93;;;25.20;99.90;;;;;;5078311;28;20029;-66
2021/09/06 17:49:08;;;;;;;8.13;7.22;;;25.20;99.90;;;;;;5072470;28;20074;-67
2021/09/06 17:51:33;;;;;;;8.57;6.95;;;25.20;99.90;;;;;;5071816;28;20089;-66
2021/09/06 17:53:59;;;;;;;6.63;5.93;;;25.20;99.90;;;;;;5072086;28;20839;-67
2021/09/06 17:56:25;;;;;;;7.50;6.80;;;25.20;99.90;;;;;;5072164;28;20035;-63
2021/09/06 17:58:51;;;;;;;8.43;6.72;;;25.20;99.90;;;;;;5072106;28;20024;-65
2021/09/06 18:01:17;;;;;;;9.05;6.45;;;25.20;99.90;;;;;;5076101;28;20035;-65
2021/09/06 18:03:42;;;;;;;13.57;7.95;;;25.10;99.90;;;;;;5064778;28;20047;-64
2021/09/06 18:06:08;;;;;;;17.23;7.85;;;25.20;99.90;;;;;;5063030;28;20089;-64
2021/09/06 18:08:34;;;;;;;12.38;7.15;;;25.20;99.90;;;;;;5075029;28;20107;-64
2021/09/06 18:11:01;;;;;;;14.50;7.70;;;25.20;99.90;;;;;;5078109;28;20483;-64
2021/09/06 18:13:28;;;;;;;15.00;7.55;;;25.20;99.90;;;;;;5071414;28;20021;-64
2021/09/06 18:15:54;;;;;;;14.20;7.72;;;25.10;99.90;;;;;;5066962;28;20035;-64
2021/09/06 18:18:20;;;;;;;12.35;7.13;;;25.10;99.90;;;;;;5071076;28;20024;-64
2021/09/06 18:20:46;;;;;;;12.75;7.07;;;25.20;99.90;;;;;;5070788;28;20091;-65
2021/09/06 18:23:11;;;;;;;15.63;7.85;;;25.10;99.90;;;;;;5080085;28;20039;-64
2021/09/06 18:25:37;;;;;;;12.60;7.53;;;25.20;99.90;;;;;;5078042;28;20024;-64
2021/09/06 18:28:03;;;;;;;12.10;7.88;;;25.20;99.90;;;;;;5070652;28;20036;-64
2021/09/06 18:30:29;;;;;;;13.52;7.50;;;25.20;99.90;;;;;;5071144;28;20035;-63
2021/09/06 18:32:56;;;;;;;12.13;7.65;;;25.20;99.90;;;;;;5070827;28;20468;-64
2021/09/06 18:35:21;;;;;;;13.02;7.55;;;25.20;99.90;;;;;;5070877;28;20024;-64
2021/09/06 18:37:47;;;;;;;12.20;7.45;;;25.20;99.90;;;;;;5069308;28;20431;-64
2021/09/06 18:40:13;;;;;;;11.57;7.72;;;25.20;99.90;;;;;;5069239;28;20029;-65
2021/09/06 18:42:41;;;;;;;15.05;7.55;;;25.20;99.90;;;;;;5068081;28;20478;-65
2021/09/06 18:45:07;;;;;;;10.73;7.28;;;25.20;99.90;;;;;;5069701;28;20032;-65
2021/09/06 18:47:33;;;;;;;12.40;8.05;;;25.20;99.90;;;;;;5070349;28;20028;-64
2021/09/06 18:49:59;;;;;;;10.77;7.78;;;25.20;99.90;;;;;;5069209;28;20106;-64
2021/09/06 18:52:25;;;;;;;12.55;7.45;;;25.20;99.90;;;;;;5070161;28;20387;-63
2021/09/06 18:54:51;;;;;;;13.95;7.97;;;25.20;99.90;;;;;;5070598;28;20020;-65
2021/09/06 18:57:17;;;;;;;12.48;7.78;;;25.20;99.90;;;;;;5070673;28;20044;-65
2021/09/06 18:59:42;;;;;;;12.70;6.97;;;25.20;99.90;;;;;;5070857;28;20028;-64
2021/09/06 19:02:08;;;;;;;10.10;7.15;;;25.20;99.90;;;;;;5085825;28;20020;-64
2021/09/06 19:04:35;;;;;;;12.40;8.10;;;25.20;99.90;;;;;;5070476;28;20029;-63
2021/09/06 19:07:01;;;;;;;15.55;8.20;;;25.20;99.90;;;;;;5070366;28;20029;-65
2021/09/06 19:09:26;;;;;;;15.30;8.30;;;25.20;99.90;;;;;;5070690;28;20035;-64
2021/09/06 19:11:52;;;;;;;11.00;7.60;;;25.20;99.90;;;;;;5069508;28;20078;-63
2021/09/06 19:14:18;;;;;;;14.10;8.23;;;25.20;99.90;;;;;;5070401;28;20032;-64
2021/09/06 19:16:44;;;;;;;11.32;7.88;;;25.20;99.90;;;;;;5070645;28;20036;-65
2021/09/06 19:19:10;;;;;;;11.55;7.43;;;25.20;99.90;;;;;;5067551;28;20037;-64
2021/09/06 19:21:36;;;;;;;12.00;8.52;;;25.20;99.90;;;;;;5069660;28;20021;-64
2021/09/06 19:24:02;;;;;;;12.38;8.57;;;25.20;99.90;;;;;;5070229;28;20525;-64
2021/09/06 19:26:28;;;;;;;14.48;8.23;;;25.20;99.90;;;;;;5069283;28;20029;-63
2021/09/06 19:28:53;;;;;;;10.35;7.88;;;25.20;99.90;;;;;;5068515;28;20484;-65